Time;durP1;ratioP1;P1;durP2;ratioP2;P2;SDS_P1;SDS_P2;PMS_P1;PMS_P2;Temp;Humidity;BMP_temperature;BMP_pressure;BME280_temperature;BME280_humidity;BME280_pressure;Samples;Min_cycle;Max_cycle;Signal;HPM_P1;HPM_P2
2023/04/12 00:02:16;;;;;;;9.98;3.38;;;7.90;99.90;;;;;;5030251;28;20056;-44
2023/04/12 00:04:42;;;;;;;8.88;3.20;;;8.00;99.90;;;;;;5032531;28;20339;-37
2023/04/12 00:07:08;;;;;;;11.85;4.00;;;8.00;99.90;;;;;;5027642;28;20442;-39
2023/04/12 00:09:35;;;;;;;13.13;3.67;;;8.10;99.90;;;;;;5053176;28;20053;-43
2023/04/12 00:12:01;;;;;;;8.82;3.50;;;8.20;99.90;;;;;;5039217;28;20127;-37
2023/04/12 00:14:28;;;;;;;9.32;3.08;;;8.20;99.90;;;;;;5038044;28;20055;-43
2023/04/12 00:16:54;;;;;;;10.02;3.72;;;8.30;99.90;;;;;;5039430;28;20476;-40
2023/04/12 00:19:20;;;;;;;13.10;3.72;;;8.30;99.90;;;;;;5038278;28;20323;-43
2023/04/12 00:21:45;;;;;;;9.82;3.58;;;8.40;99.90;;;;;;5038415;28;20106;-47
2023/04/12 00:24:12;;;;;;;10.93;3.70;;;8.40;99.90;;;;;;5038025;28;20354;-43
2023/04/12 00:26:37;;;;;;;7.78;3.00;;;8.40;99.90;;;;;;5038266;28;20552;-36
2023/04/12 00:29:03;;;;;;;12.15;3.20;;;8.40;99.90;;;;;;5037285;28;20041;-37
2023/04/12 00:31:29;;;;;;;11.35;3.63;;;8.40;99.90;;;;;;5038195;28;20048;-41
2023/04/12 00:33:55;;;;;;;10.88;3.50;;;8.40;99.90;;;;;;5037204;28;20049;-41
2023/04/12 00:36:21;;;;;;;9.02;3.13;;;8.40;99.90;;;;;;5038510;28;20045;-38
2023/04/12 00:38:46;;;;;;;7.53;3.28;;;8.40;99.90;;;;;;5037979;28;20059;-43
2023/04/12 00:41:13;;;;;;;9.07;3.40;;;8.30;99.90;;;;;;5027581;28;20049;-42
2023/04/12 00:43:42;;;;;;;9.30;4.05;;;8.30;99.90;;;;;;5033733;28;20060;-38
2023/04/12 00:46:10;;;;;;;12.80;4.05;;;8.30;99.90;;;;;;5036999;28;20415;-38
2023/04/12 00:48:36;;;;;;;10.60;2.95;;;8.30;99.90;;;;;;5036307;28;20124;-38
2023/04/12 00:51:03;;;;;;;10.40;2.90;;;8.30;99.90;;;;;;5037513;28;20055;-40
2023/04/12 00:53:30;;;;;;;9.68;3.35;;;8.30;99.90;;;;;;5037420;28;20489;-40
2023/04/12 00:55:57;;;;;;;12.30;3.63;;;8.30;99.90;;;;;;5038089;28;20045;-45
2023/04/12 00:58:25;;;;;;;9.43;3.88;;;8.30;99.90;;;;;;5037954;28;20095;-42
2023/04/12 01:00:54;;;;;;;10.95;3.60;;;8.30;99.90;;;;;;5037668;28;20088;-42
2023/04/12 01:03:22;;;;;;;11.80;3.25;;;8.30;99.90;;;;;;5032938;28;20476;-38
2023/04/12 01:06:28;;;;;;;11.05;3.67;;;8.30;99.90;;;;;;5029230;28;20044;-37
2023/04/12 01:09:03;;;;;;;8.35;3.00;;;8.30;99.90;;;;;;5054122;28;20074;-40
2023/04/12 01:11:36;;;;;;;9.57;3.05;;;8.20;99.90;;;;;;5036240;28;20594;-39
2023/04/12 01:14:10;;;;;;;10.63;3.65;;;8.30;99.90;;;;;;5037552;28;20048;-41
2023/04/12 01:16:52;;;;;;;10.38;4.03;;;8.20;99.90;;;;;;5037655;28;20063;-36
2023/04/12 01:19:52;;;;;;;9.77;3.50;;;8.20;99.90;;;;;;5034397;28;20138;-37
2023/04/12 01:22:56;;;;;;;8.93;3.33;;;8.30;99.90;;;;;;5030466;28;20585;-38
2023/04/12 01:25:42;;;;;;;;;;;8.20;99.90;;;;;;4963536;28;20058;-39
2023/04/12 01:28:13;;;;;;;9.38;3.67;;;8.20;99.90;;;;;;4974514;28;19922;-40
2023/04/12 01:30:41;;;;;;;12.38;3.28;;;8.10;99.90;;;;;;4957763;28;20104;-41
2023/04/12 01:33:10;;;;;;;15.73;3.80;;;8.10;99.90;;;;;;4974670;28;20385;-41
2023/04/12 01:35:38;;;;;;;8.52;4.05;;;8.10;99.90;;;;;;4974758;28;20066;-39
2023/04/12 01:38:05;;;;;;;10.18;3.55;;;8.10;99.90;;;;;;4975093;28;20599;-36
2023/04/12 01:40:31;;;;;;;8.88;3.47;;;8.10;99.90;;;;;;4974259;28;20050;-42
2023/04/12 01:43:07;;;;;;;15.32;3.97;;;8.10;99.90;;;;;;4974877;28;20065;-45
2023/04/12 01:45:33;;;;;;;14.63;4.00;;;8.00;99.90;;;;;;4959092;28;20134;-41
2023/04/12 01:48:00;;;;;;;10.70;3.45;;;8.00;99.90;;;;;;4958410;28;20137;-43
2023/04/12 01:50:35;;;;;;;8.65;3.63;;;8.00;99.90;;;;;;4973804;28;20109;-39
2023/04/12 01:53:12;;;;;;;8.35;3.33;;;8.00;99.90;;;;;;4961130;28;20043;-41
2023/04/12 01:55:44;;;;;;;10.20;3.42;;;8.00;99.90;;;;;;4939755;28;20070;-43
2023/04/12 01:58:11;;;;;;;9.57;3.92;;;8.00;99.90;;;;;;4955219;28;20579;-40
2023/04/12 02:00:37;;;;;;;10.35;3.17;;;8.00;99.90;;;;;;4936212;28;20651;-40
2023/04/12 02:03:05;;;;;;;10.63;4.05;;;8.00;99.90;;;;;;5035488;28;20091;-38
2023/04/12 02:05:32;;;;;;;9.45;3.20;;;8.00;99.90;;;;;;5034410;28;20053;-43
2023/04/12 02:08:00;;;;;;;9.90;2.95;;;8.00;99.90;;;;;;5035607;28;20231;-41
2023/04/12 02:10:30;;;;;;;11.57;3.85;;;8.00;99.90;;;;;;5036293;28;20052;-43
2023/04/12 02:13:02;;;;;;;12.88;3.35;;;7.90;99.90;;;;;;5034802;28;20118;-44
2023/04/12 02:15:28;;;;;;;10.63;3.75;;;7.90;99.90;;;;;;5036065;28;20048;-39
2023/04/12 02:17:54;;;;;;;8.10;3.00;;;7.90;99.90;;;;;;5033029;28;20305;-36
2023/04/12 02:20:21;;;;;;;7.15;3.20;;;7.90;99.90;;;;;;5025787;28;20046;-43
2023/04/12 02:22:47;;;;;;;9.32;3.47;;;7.90;99.90;;;;;;5050305;28;20128;-44
2023/04/12 02:25:14;;;;;;;12.40;3.42;;;7.90;99.90;;;;;;5036423;28;20071;-36
2023/04/12 02:27:40;;;;;;;11.30;3.85;;;7.90;99.90;;;;;;5019697;28;20049;-41
2023/04/12 02:30:06;;;;;;;7.55;3.25;;;7.90;99.90;;;;;;5038224;28;20396;-41
2023/04/12 02:32:32;;;;;;;8.52;3.58;;;7.90;99.90;;;;;;5020168;28;20044;-43
2023/04/12 02:34:59;;;;;;;10.05;3.35;;;7.90;99.90;;;;;;5025779;28;20049;-38
2023/04/12 02:37:26;;;;;;;10.65;4.30;;;7.90;99.90;;;;;;5033651;28;20079;-43
2023/04/12 02:39:55;;;;;;;9.77;3.33;;;7.90;99.90;;;;;;5023077;28;20482;-46
2023/04/12 02:42:21;;;;;;;8.88;3.63;;;7.90;99.90;;;;;;5028601;28;20045;-44
2023/04/12 02:44:47;;;;;;;8.30;3.85;;;7.90;99.90;;;;;;5028487;28;20055;-45
2023/04/12 02:47:13;;;;;;;13.70;3.22;;;7.80;99.90;;;;;;5036062;28;20045;-38
2023/04/12 02:49:39;;;;;;;6.45;3.08;;;7.90;99.90;;;;;;5035561;28;20045;-41
2023/04/12 02:52:04;;;;;;;7.55;3.15;;;7.90;99.90;;;;;;5034729;28;20048;-39
2023/04/12 02:54:30;;;;;;;8.70;3.47;;;7.90;99.90;;;;;;5035475;28;20052;-42
2023/04/12 02:56:56;;;;;;;6.40;3.00;;;7.80;99.90;;;;;;5035052;28;20111;-43
2023/04/12 02:59:24;;;;;;;12.38;3.60;;;7.90;99.90;;;;;;5035256;28;20066;-45
2023/04/12 03:01:49;;;;;;;8.30;3.80;;;7.80;99.90;;;;;;5033901;28;20056;-44
2023/04/12 03:04:15;;;;;;;6.45;2.70;;;7.80;99.90;;;;;;5035778;28;20044;-39
2023/04/12 03:06:51;;;;;;;9.40;4.05;;;7.80;99.90;;;;;;5030452;28;20256;-38
2023/04/12 03:09:17;;;;;;;6.63;2.97;;;7.80;99.90;;;;;;5028437;28;20053;-43
2023/04/12 03:11:44;;;;;;;10.85;2.95;;;7.90;99.90;;;;;;5021841;28;20052;-42
2023/04/12 03:14:09;;;;;;;7.28;2.83;;;7.80;99.90;;;;;;5035520;28;20044;-39
2023/04/12 03:16:35;;;;;;;7.50;3.40;;;7.90;99.90;;;;;;5022240;28;20037;-40
2023/04/12 03:19:01;;;;;;;8.68;3.35;;;7.90;99.90;;;;;;5035357;28;20429;-45
2023/04/12 03:21:28;;;;;;;11.23;4.13;;;7.80;99.90;;;;;;5029009;28;20580;-38
2023/04/12 03:23:54;;;;;;;7.70;3.80;;;7.80;99.90;;;;;;5027945;28;20048;-43
2023/04/12 03:26:19;;;;;;;12.40;4.22;;;7.80;99.90;;;;;;5035500;28;20080;-43
2023/04/12 03:28:46;;;;;;;10.23;3.58;;;7.80;99.90;;;;;;5035179;28;20629;-38
2023/04/12 03:31:12;;;;;;;12.15;3.70;;;7.80;99.90;;;;;;5035959;28;20048;-41
2023/04/12 03:33:38;;;;;;;9.02;3.95;;;7.80;99.90;;;;;;5021199;28;20038;-42
2023/04/12 03:36:05;;;;;;;11.38;4.00;;;7.80;99.90;;;;;;5035130;28;20044;-36
2023/04/12 03:38:30;;;;;;;11.70;4.38;;;7.70;99.90;;;;;;5034255;28;20079;-39
2023/04/12 03:40:56;;;;;;;9.45;4.25;;;7.80;99.90;;;;;;5034067;28;20152;-40
2023/04/12 03:43:22;;;;;;;9.68;3.78;;;7.70;99.90;;;;;;5034351;28;20037;-43
2023/04/12 03:45:48;;;;;;;12.48;4.07;;;7.70;99.90;;;;;;5035448;28;20048;-43
2023/04/12 03:48:13;;;;;;;7.60;3.53;;;7.70;99.90;;;;;;5034244;28;20053;-40
2023/04/12 03:50:43;;;;;;;9.32;3.53;;;7.70;99.90;;;;;;5021861;28;20048;-36
2023/04/12 03:53:12;;;;;;;12.75;3.65;;;7.70;99.90;;;;;;5048185;28;20053;-44
2023/04/12 03:55:37;;;;;;;9.55;3.60;;;7.70;99.90;;;;;;5035232;28;20227;-40
2023/04/12 03:58:03;;;;;;;9.25;3.40;;;7.70;99.90;;;;;;5033689;28;20037;-39
2023/04/12 04:00:32;;;;;;;7.50;2.97;;;7.70;99.90;;;;;;5029532;28;20458;-39
2023/04/12 04:03:01;;;;;;;6.95;3.28;;;7.70;99.90;;;;;;5020042;28;20657;-37
2023/04/12 04:05:30;;;;;;;9.88;3.03;;;7.70;99.90;;;;;;5033775;28;20581;-42
2023/04/12 04:07:59;;;;;;;9.30;3.17;;;7.70;99.90;;;;;;5034560;28;20087;-44
2023/04/12 04:10:26;;;;;;;9.70;3.40;;;7.70;99.90;;;;;;5033002;28;20053;-42
2023/04/12 04:12:52;;;;;;;10.07;3.47;;;7.70;99.90;;;;;;5034565;28;20499;-41
2023/04/12 04:15:18;;;;;;;5.93;2.97;;;7.70;99.90;;;;;;5035479;28;20376;-39
2023/04/12 04:17:46;;;;;;;9.52;3.35;;;7.70;99.90;;;;;;5038115;28;20059;-42
2023/04/12 04:20:12;;;;;;;10.85;3.40;;;7.60;99.90;;;;;;5038563;28;20490;-44
2023/04/12 04:22:38;;;;;;;9.40;3.65;;;7.60;99.90;;;;;;5037227;28;20102;-37
2023/04/12 04:25:04;;;;;;;7.07;3.00;;;7.60;99.90;;;;;;5038505;28;20041;-40
2023/04/12 04:27:33;;;;;;;9.25;3.40;;;7.60;99.90;;;;;;5035850;28;20049;-44
2023/04/12 04:30:01;;;;;;;11.02;3.83;;;7.50;99.90;;;;;;5028898;28;20056;-36
2023/04/12 04:32:27;;;;;;;8.60;3.63;;;7.50;99.90;;;;;;5038222;28;20119;-44
2023/04/12 04:34:59;;;;;;;7.30;3.58;;;7.50;99.90;;;;;;5038794;28;20032;-41
2023/04/12 04:37:27;;;;;;;9.15;3.58;;;7.50;99.90;;;;;;5026036;28;20045;-40
2023/04/12 04:39:52;;;;;;;13.65;4.20;;;7.50;99.90;;;;;;5038086;28;20053;-41
2023/04/12 04:42:18;;;;;;;11.75;3.83;;;7.40;99.90;;;;;;5039282;28;20048;-36
2023/04/12 04:44:44;;;;;;;10.43;4.05;;;7.40;99.90;;;;;;5038810;28;20132;-37
2023/04/12 04:47:10;;;;;;;12.02;4.22;;;7.40;99.90;;;;;;5036748;28;20041;-41
2023/04/12 04:49:36;;;;;;;9.80;3.97;;;7.40;99.90;;;;;;5037154;28;20049;-37
2023/04/12 04:52:03;;;;;;;10.77;4.25;;;7.40;99.90;;;;;;5035164;28;20053;-44
2023/04/12 04:54:29;;;;;;;15.13;4.57;;;7.40;99.90;;;;;;5038192;28;20048;-43
2023/04/12 04:56:56;;;;;;;10.32;4.38;;;7.40;99.90;;;;;;5038414;28;20081;-43
2023/04/12 04:59:22;;;;;;;12.77;5.50;;;7.40;99.90;;;;;;5019165;28;20135;-43
2023/04/12 05:01:48;;;;;;;11.60;5.10;;;7.30;99.90;;;;;;5037295;28;20072;-36
2023/04/12 05:04:14;;;;;;;10.88;5.28;;;7.30;99.90;;;;;;5038143;28;20500;-36
2023/04/12 05:06:39;;;;;;;14.43;6.30;;;7.40;99.90;;;;;;5038246;28;20133;-41
2023/04/12 05:09:05;;;;;;;7.75;6.00;;;7.40;99.90;;;;;;5037858;28;20300;-38
2023/04/12 05:11:31;;;;;;;12.73;6.57;;;7.30;99.90;;;;;;5037683;28;20410;-41
2023/04/12 05:13:56;;;;;;;14.73;7.07;;;7.40;99.90;;;;;;5037470;28;20045;-36
2023/04/12 05:16:22;;;;;;;15.18;8.35;;;7.30;99.90;;;;;;5038136;28;20217;-41
2023/04/12 05:18:48;;;;;;;14.70;8.13;;;7.40;99.90;;;;;;5023864;28;20045;-41
2023/04/12 05:21:13;;;;;;;13.35;9.02;;;7.40;99.90;;;;;;5036220;28;20051;-37
2023/04/12 05:23:44;;;;;;;15.82;8.02;;;7.30;99.90;;;;;;5037196;28;20048;-35
2023/04/12 05:26:10;;;;;;;15.50;10.75;;;7.40;99.90;;;;;;5052390;28;20041;-39
2023/04/12 05:28:36;;;;;;;17.02;10.35;;;7.40;99.90;;;;;;5035377;28;20092;-42
2023/04/12 05:31:02;;;;;;;19.65;13.25;;;7.40;99.90;;;;;;5037192;28;20048;-42
2023/04/12 05:33:27;;;;;;;15.30;13.23;;;7.40;99.90;;;;;;5037315;28;20055;-42
2023/04/12 05:35:53;;;;;;;18.20;14.20;;;7.40;99.90;;;;;;5031662;28;20037;-41
2023/04/12 05:38:19;;;;;;;20.60;15.80;;;7.40;99.90;;;;;;5030639;28;20053;-36
2023/04/12 05:40:44;;;;;;;25.65;17.10;;;7.40;99.90;;;;;;5036838;28;20047;-43
2023/04/12 05:43:11;;;;;;;22.98;17.05;;;7.40;99.90;;;;;;5036682;28;20044;-38
2023/04/12 05:45:38;;;;;;;25.15;19.17;;;7.40;99.90;;;;;;5023754;28;20056;-42
2023/04/12 05:48:04;;;;;;;23.17;17.10;;;7.40;99.90;;;;;;5023935;28;20049;-40
2023/04/12 05:50:29;;;;;;;27.55;18.33;;;7.40;99.90;;;;;;5036161;28;20098;-40
2023/04/12 05:52:55;;;;;;;24.17;16.77;;;7.40;99.90;;;;;;5036822;28;20481;-41
2023/04/12 05:55:21;;;;;;;22.38;17.20;;;7.40;99.90;;;;;;5035663;28;20052;-40
2023/04/12 05:57:46;;;;;;;20.63;16.20;;;7.40;99.90;;;;;;5036111;28;20505;-44
2023/04/12 06:00:16;;;;;;;23.45;17.83;;;7.40;99.90;;;;;;5035199;28;20041;-39
2023/04/12 06:02:46;;;;;;;22.20;17.23;;;7.40;99.90;;;;;;5036765;28;20142;-45
2023/04/12 06:05:12;;;;;;;22.05;15.82;;;7.40;99.90;;;;;;5036140;28;20271;-41
2023/04/12 06:07:38;;;;;;;24.10;17.00;;;7.40;99.90;;;;;;5024021;28;20133;-40
2023/04/12 06:10:05;;;;;;;21.05;16.20;;;7.40;99.90;;;;;;5023611;28;20059;-39
2023/04/12 06:12:34;;;;;;;21.83;15.75;;;7.40;99.90;;;;;;5036642;28;20049;-43
2023/04/12 06:15:00;;;;;;;21.08;14.68;;;7.40;99.90;;;;;;5037431;28;20384;-37
2023/04/12 06:17:26;;;;;;;20.13;15.57;;;7.40;99.90;;;;;;5036966;28;20131;-44
2023/04/12 06:19:51;;;;;;;22.20;15.05;;;7.40;99.90;;;;;;5024434;28;20360;-45
2023/04/12 06:22:17;;;;;;;20.42;13.65;;;7.40;99.90;;;;;;5036300;28;20068;-41
2023/04/12 06:24:43;;;;;;;25.42;14.45;;;7.40;99.90;;;;;;5033704;28;20103;-42
2023/04/12 06:27:08;;;;;;;17.98;13.80;;;7.40;99.90;;;;;;5034647;28;20797;-36
2023/04/12 06:29:34;;;;;;;21.13;14.13;;;7.40;99.90;;;;;;5035878;28;20260;-39
2023/04/12 06:32:00;;;;;;;15.70;13.88;;;7.40;99.90;;;;;;5033544;28;20041;-40
2023/04/12 06:34:25;;;;;;;18.17;13.43;;;7.40;99.90;;;;;;5035680;28;20037;-46
2023/04/12 06:36:51;;;;;;;17.98;13.52;;;7.40;99.90;;;;;;5023120;28;20072;-44
2023/04/12 06:39:17;;;;;;;16.05;12.32;;;7.40;99.90;;;;;;5035660;28;20492;-43
2023/04/12 06:41:42;;;;;;;16.60;13.30;;;7.40;99.90;;;;;;5050342;28;20471;-44
2023/04/12 06:44:09;;;;;;;17.20;12.63;;;7.40;99.90;;;;;;5023846;28;20426;-43
2023/04/12 06:46:34;;;;;;;17.38;13.15;;;7.40;99.90;;;;;;5037170;28;20719;-46
2023/04/12 06:49:00;;;;;;;17.83;12.93;;;7.40;99.90;;;;;;5036662;28;20045;-41
2023/04/12 06:51:27;;;;;;;18.77;13.32;;;7.40;99.90;;;;;;5034521;28;20119;-45
2023/04/12 06:53:52;;;;;;;16.35;12.00;;;7.40;99.90;;;;;;5033876;28;20656;-41
2023/04/12 06:56:18;;;;;;;15.45;11.77;;;7.40;99.90;;;;;;5035108;28;20057;-39
2023/04/12 06:58:44;;;;;;;18.63;12.15;;;7.40;99.90;;;;;;5034627;28;20048;-42
2023/04/12 07:01:10;;;;;;;18.17;12.30;;;7.40;99.90;;;;;;5034940;28;20041;-39
2023/04/12 07:03:36;;;;;;;16.65;12.23;;;7.40;99.90;;;;;;5033715;28;20036;-38
2023/04/12 07:06:03;;;;;;;14.30;12.80;;;7.50;99.90;;;;;;5032790;28;20040;-39
2023/04/12 07:08:29;;;;;;;14.45;11.60;;;7.50;99.90;;;;;;5035143;28;20501;-38
2023/04/12 07:10:55;;;;;;;15.98;12.10;;;7.50;99.90;;;;;;5034962;28;20036;-41
2023/04/12 07:13:21;;;;;;;17.20;11.95;;;7.50;99.90;;;;;;5035139;28;20075;-43
2023/04/12 07:15:51;;;;;;;16.55;12.05;;;7.50;99.90;;;;;;5034409;28;20097;-43
2023/04/12 07:18:16;;;;;;;14.95;11.52;;;7.50;99.90;;;;;;5035907;28;20056;-39
2023/04/12 07:20:42;;;;;;;14.40;10.77;;;7.60;99.90;;;;;;5034717;28;20400;-37
2023/04/12 07:23:08;;;;;;;14.60;11.30;;;7.60;99.90;;;;;;5033445;28;20041;-39
2023/04/12 07:25:37;;;;;;;13.43;10.07;;;7.60;99.90;;;;;;5035449;28;20489;-42
2023/04/12 07:28:03;;;;;;;10.45;9.30;;;7.60;99.90;;;;;;5034898;28;20084;-39
2023/04/12 07:30:29;;;;;;;11.88;9.35;;;7.60;99.90;;;;;;5035393;28;20235;-38
2023/04/12 07:32:55;;;;;;;11.13;9.35;;;7.60;99.90;;;;;;5035734;28;20091;-45
2023/04/12 07:35:21;;;;;;;10.85;8.60;;;7.70;99.90;;;;;;5035874;28;20041;-41
2023/04/12 07:37:46;;;;;;;12.18;9.90;;;7.70;99.90;;;;;;5027583;28;20038;-42
2023/04/12 07:40:12;;;;;;;8.35;7.13;;;7.80;99.90;;;;;;5028730;28;20055;-38
2023/04/12 07:42:38;;;;;;;9.02;7.57;;;7.70;99.90;;;;;;5019966;28;20827;-40
2023/04/12 07:45:05;;;;;;;9.15;7.22;;;7.80;99.90;;;;;;5028304;28;20053;-40
2023/04/12 07:47:31;;;;;;;11.10;6.65;;;7.80;99.90;;;;;;5034990;28;20129;-36
2023/04/12 07:49:57;;;;;;;7.45;6.63;;;7.80;99.90;;;;;;5035299;28;20048;-44
2023/04/12 07:52:24;;;;;;;8.30;6.47;;;7.90;99.90;;;;;;5039490;28;20416;-39
2023/04/12 07:54:50;;;;;;;7.10;6.22;;;7.90;99.90;;;;;;5040172;28;20076;-41
2023/04/12 07:57:16;;;;;;;8.45;6.32;;;7.90;99.90;;;;;;5039885;28;20480;-48
2023/04/12 07:59:41;;;;;;;7.00;6.28;;;8.00;99.90;;;;;;5039187;28;20045;-43
2023/04/12 08:02:07;;;;;;;9.13;6.03;;;8.00;99.90;;;;;;5039211;28;20063;-40
2023/04/12 08:04:33;;;;;;;10.15;6.53;;;8.10;99.90;;;;;;5039993;28;20075;-41
2023/04/12 08:06:58;;;;;;;6.15;5.30;;;8.10;99.90;;;;;;5039650;28;20037;-39
2023/04/12 08:09:24;;;;;;;7.68;6.35;;;8.10;99.90;;;;;;5039650;28;20048;-37
2023/04/12 08:11:50;;;;;;;7.68;6.10;;;8.10;99.90;;;;;;5037924;28;20075;-41
2023/04/12 08:14:16;;;;;;;7.63;5.82;;;8.10;99.90;;;;;;5037748;28;20450;-42
2023/04/12 08:16:41;;;;;;;8.50;6.38;;;8.10;99.90;;;;;;5039875;28;20048;-39
2023/04/12 08:19:07;;;;;;;7.88;6.40;;;8.00;99.90;;;;;;5038224;28;20142;-40
2023/04/12 08:21:33;;;;;;;9.40;6.60;;;8.00;99.90;;;;;;5035646;28;20045;-40
2023/04/12 08:23:59;;;;;;;7.47;6.78;;;8.00;99.90;;;;;;5032948;28;20063;-38
2023/04/12 08:26:28;;;;;;;8.82;7.38;;;8.00;99.90;;;;;;5038657;28;20487;-44
2023/04/12 08:28:56;;;;;;;9.55;6.85;;;8.00;99.90;;;;;;5025811;28;20052;-39
2023/04/12 08:31:22;;;;;;;7.45;6.75;;;8.10;99.90;;;;;;5038507;28;20376;-43
2023/04/12 08:33:48;;;;;;;8.48;7.03;;;8.10;99.90;;;;;;5038370;28;20399;-40
2023/04/12 08:36:14;;;;;;;9.90;6.88;;;8.10;99.90;;;;;;5038173;28;20041;-42
2023/04/12 08:38:40;;;;;;;7.32;6.63;;;8.20;99.90;;;;;;5037169;28;20659;-43
2023/04/12 08:41:06;;;;;;;7.90;6.80;;;8.20;99.90;;;;;;5020125;28;20044;-39
2023/04/12 08:43:33;;;;;;;10.00;6.35;;;8.40;99.90;;;;;;5031795;28;20053;-36
2023/04/12 08:46:00;;;;;;;9.55;6.80;;;8.40;99.90;;;;;;5025968;28;20048;-39
2023/04/12 08:48:27;;;;;;;8.43;6.88;;;8.50;99.90;;;;;;5022061;28;20136;-46
2023/04/12 08:50:55;;;;;;;8.77;6.10;;;8.60;99.90;;;;;;5036420;28;20487;-38
2023/04/12 08:53:21;;;;;;;8.23;6.63;;;8.70;99.90;;;;;;5035826;28;20044;-43
2023/04/12 08:55:47;;;;;;;8.90;6.63;;;8.90;99.90;;;;;;5038167;28;20041;-39
2023/04/12 08:58:16;;;;;;;9.27;7.20;;;9.00;99.90;;;;;;5053412;28;20063;-44
2023/04/12 09:00:45;;;;;;;13.45;6.90;;;9.20;99.90;;;;;;5038637;28;20045;-40
2023/04/12 09:03:10;;;;;;;12.50;6.40;;;9.40;99.90;;;;;;5047469;28;20491;-44
2023/04/12 09:05:36;;;;;;;13.52;7.57;;;9.60;99.90;;;;;;5028511;28;20044;-42
2023/04/12 09:08:03;;;;;;;9.98;6.60;;;9.90;99.90;;;;;;5051159;28;20481;-39
2023/04/12 09:10:33;;;;;;;12.75;6.50;;;10.20;99.90;;;;;;5021812;28;20472;-36
2023/04/12 09:12:59;;;;;;;12.52;6.60;;;10.50;99.90;;;;;;5020859;28;20471;-36
2023/04/12 09:15:25;;;;;;;9.52;5.35;;;10.60;99.90;;;;;;5028279;28;20556;-43
2023/04/12 09:18:09;;;;;;;11.60;5.20;;;10.60;99.90;;;;;;5034324;28;20060;-37
2023/04/12 09:20:35;;;;;;;9.93;5.63;;;10.70;99.90;;;;;;5033097;28;20111;-40
2023/04/12 09:23:17;;;;;;;9.38;4.97;;;10.80;99.90;;;;;;5034944;28;20471;-43
2023/04/12 09:25:51;;;;;;;19.85;6.57;;;10.90;99.90;;;;;;5023553;28;20814;-39
2023/04/12 09:28:25;;;;;;;12.52;4.85;;;11.00;99.90;;;;;;5036294;28;20147;-39
2023/04/12 09:30:55;;;;;;;18.27;5.15;;;11.10;99.90;;;;;;5053062;28;20052;-41
2023/04/12 09:33:33;;;;;;;13.68;5.03;;;11.10;99.90;;;;;;5028408;28;20049;-43
2023/04/12 09:36:01;;;;;;;15.85;5.25;;;11.30;99.90;;;;;;5030498;28;20072;-41
2023/04/12 09:38:28;;;;;;;15.13;5.05;;;11.50;99.90;;;;;;5029866;28;20060;-47
2023/04/12 09:40:54;;;;;;;16.55;5.95;;;11.70;99.90;;;;;;5035882;28;20037;-37
2023/04/12 09:43:35;;;;;;;17.45;3.70;;;12.00;99.90;;;;;;5029068;28;20037;-40
2023/04/12 09:46:12;;;;;;;19.08;5.45;;;12.20;99.90;;;;;;5027300;28;20049;-36
2023/04/12 09:48:39;;;;;;;14.27;4.18;;;12.30;99.90;;;;;;5035446;28;20385;-44
2023/04/12 09:51:06;;;;;;;14.88;4.97;;;12.60;99.90;;;;;;5026645;28;20399;-44
2023/04/12 09:53:37;;;;;;;18.45;4.15;;;12.70;99.90;;;;;;5052502;28;20536;-40
2023/04/12 09:56:04;;;;;;;18.45;4.50;;;12.70;99.90;;;;;;5037802;28;20041;-39
2023/04/12 09:58:36;;;;;;;23.45;4.82;;;12.80;99.90;;;;;;5037564;28;20056;-38
2023/04/12 10:01:03;;;;;;;15.63;4.72;;;13.20;99.90;;;;;;5053686;28;20053;-40
2023/04/12 10:03:28;;;;;;;17.95;3.63;;;13.30;99.90;;;;;;5034648;28;20040;-37
2023/04/12 10:05:55;;;;;;;19.95;3.80;;;13.40;99.90;;;;;;5053097;28;20707;-42
2023/04/12 10:08:25;;;;;;;19.80;4.03;;;13.60;99.90;;;;;;5031672;28;20531;-45
2023/04/12 10:10:52;;;;;;;16.48;3.95;;;13.40;99.90;;;;;;5019379;28;20091;-37
2023/04/12 10:13:19;;;;;;;15.98;4.32;;;13.50;99.90;;;;;;5023330;28;20041;-44
2023/04/12 10:15:48;;;;;;;21.67;4.25;;;13.60;99.90;;;;;;5035745;28;20048;-40
2023/04/12 10:18:16;;;;;;;14.52;3.38;;;13.60;99.90;;;;;;5031395;28;20527;-43
2023/04/12 10:20:42;;;;;;;20.20;5.15;;;13.70;99.90;;;;;;5036479;28;20083;-41
2023/04/12 10:23:09;;;;;;;22.60;4.88;;;13.80;99.90;;;;;;5036161;28;20116;-45
2023/04/12 10:25:38;;;;;;;13.38;3.08;;;13.80;99.90;;;;;;5034625;28;20056;-45
2023/04/12 10:28:16;;;;;;;13.85;4.47;;;13.80;99.90;;;;;;5018230;28;20119;-43
2023/04/12 10:30:41;;;;;;;18.08;3.97;;;13.70;99.90;;;;;;5031962;28;20149;-37
2023/04/12 10:33:12;;;;;;;19.65;4.32;;;13.80;99.90;;;;;;5032321;28;20547;-38
2023/04/12 10:35:56;;;;;;;22.80;3.88;;;13.90;99.90;;;;;;5017016;28;20496;-41
2023/04/12 10:38:25;;;;;;;20.98;3.50;;;13.90;99.90;;;;;;5028752;28;20045;-42
2023/04/12 10:41:14;;;;;;;18.02;4.25;;;13.90;99.90;;;;;;5050515;28;20053;-45
2023/04/12 10:43:43;;;;;;;18.40;3.55;;;14.10;99.90;;;;;;5028487;28;20052;-41
2023/04/12 10:46:38;;;;;;;15.60;4.32;;;14.30;99.90;;;;;;5026239;28;20115;-41
2023/04/12 10:49:16;;;;;;;17.67;5.15;;;14.60;99.90;;;;;;5032047;28;20098;-43
2023/04/12 10:52:08;;;;;;;19.35;4.57;;;14.70;99.90;;;;;;5032923;28;20761;-43
2023/04/12 10:54:35;;;;;;;16.52;4.65;;;14.70;99.90;;;;;;5022680;28;20037;-46
2023/04/12 10:57:04;;;;;;;16.08;3.95;;;14.30;99.90;;;;;;5034601;28;20051;-45
2023/04/12 10:59:49;;;;;;;20.05;4.97;;;14.20;99.90;;;;;;5036145;28;20056;-39
2023/04/12 11:02:15;;;;;;;25.02;5.10;;;14.10;99.90;;;;;;5035060;28;20049;-42
2023/04/12 11:05:08;;;;;;;21.05;6.00;;;13.80;99.90;;;;;;5051658;28;20053;-39
2023/04/12 11:07:44;;;;;;;17.60;4.73;;;13.90;99.90;;;;;;5035347;28;20620;-43
2023/04/12 11:10:18;;;;;;;16.77;3.83;;;14.20;99.90;;;;;;5036365;28;20049;-46
2023/04/12 11:12:49;;;;;;;20.15;5.10;;;14.30;99.90;;;;;;5035560;28;20470;-40
2023/04/12 11:15:15;;;;;;;20.50;5.68;;;14.50;99.90;;;;;;5036356;28;20053;-49
2023/04/12 11:17:41;;;;;;;18.52;5.10;;;14.50;99.90;;;;;;5048033;28;20057;-43
2023/04/12 11:20:11;;;;;;;19.83;4.78;;;14.40;99.90;;;;;;5034281;28;20056;-37
2023/04/12 11:22:38;;;;;;;22.40;5.20;;;14.30;99.90;;;;;;5034525;28;20222;-37
2023/04/12 11:25:04;;;;;;;20.85;5.10;;;14.30;99.90;;;;;;5037490;28;20048;-43
2023/04/12 11:27:31;;;;;;;23.63;4.47;;;14.20;99.90;;;;;;5040529;28;20044;-50
2023/04/12 11:29:58;;;;;;;15.75;4.32;;;14.00;99.90;;;;;;5047289;28;20123;-40
2023/04/12 11:32:26;;;;;;;16.88;4.22;;;14.00;99.90;;;;;;5040402;28;20045;-41
2023/04/12 11:34:54;;;;;;;20.92;4.78;;;14.00;99.90;;;;;;5043514;28;20083;-48
2023/04/12 11:37:21;;;;;;;17.27;4.28;;;14.10;99.90;;;;;;5043236;28;20045;-47
2023/04/12 11:39:50;;;;;;;19.73;4.90;;;14.20;99.90;;;;;;5041824;28;20057;-42
2023/04/12 11:42:24;;;;;;;20.77;5.25;;;14.20;99.90;;;;;;5042374;28;20076;-47
2023/04/12 11:44:50;;;;;;;17.35;4.72;;;14.20;99.90;;;;;;5031131;28;20099;-38
2023/04/12 11:47:17;;;;;;;18.75;4.18;;;14.20;99.90;;;;;;5045449;28;20053;-46
2023/04/12 11:49:49;;;;;;;19.65;4.38;;;14.20;99.90;;;;;;5042487;28;20518;-40
2023/04/12 11:52:19;;;;;;;18.77;4.32;;;14.20;99.90;;;;;;5030964;28;20049;-46
2023/04/12 11:54:50;;;;;;;18.10;4.13;;;14.20;99.90;;;;;;5043487;28;20669;-39
2023/04/12 11:57:18;;;;;;;19.58;5.50;;;14.10;99.90;;;;;;5058408;28;20802;-43
2023/04/12 11:59:45;;;;;;;17.10;4.07;;;13.90;99.90;;;;;;5041874;28;20045;-40
2023/04/12 12:02:12;;;;;;;15.15;3.72;;;13.80;99.90;;;;;;5043159;28;20128;-44
2023/04/12 12:04:43;;;;;;;17.65;4.25;;;13.90;99.90;;;;;;5041900;28;20232;-46
2023/04/12 12:07:11;;;;;;;14.45;3.33;;;13.90;99.90;;;;;;5043879;28;20040;-40
2023/04/12 12:09:38;;;;;;;15.90;3.30;;;13.90;99.90;;;;;;5042690;28;20053;-41
2023/04/12 12:12:05;;;;;;;16.88;4.38;;;13.80;99.90;;;;;;5032715;28;20077;-45
2023/04/12 12:14:33;;;;;;;16.70;3.78;;;13.70;99.90;;;;;;5036688;28;20045;-43
2023/04/12 12:16:59;;;;;;;21.35;4.57;;;13.70;99.90;;;;;;5033034;28;20128;-39
2023/04/12 12:19:41;;;;;;;15.65;3.30;;;13.70;99.90;;;;;;5028374;28;20477;-44
2023/04/12 12:22:25;;;;;;;16.87;3.50;;;13.60;99.90;;;;;;5029299;28;20050;-39
2023/04/12 12:24:51;;;;;;;23.92;4.88;;;13.90;99.90;;;;;;5038904;28;20057;-41
2023/04/12 12:27:17;;;;;;;12.73;2.80;;;14.20;99.90;;;;;;5034950;28;20056;-49
2023/04/12 12:29:47;;;;;;;10.50;2.60;;;14.40;99.90;;;;;;5037566;28;20064;-44
2023/04/12 12:32:13;;;;;;;11.07;3.28;;;14.40;99.90;;;;;;5038301;28;20053;-46
2023/04/12 12:34:50;;;;;;;9.15;2.08;;;14.40;99.90;;;;;;5058296;28;20087;-39
2023/04/12 12:37:20;;;;;;;11.77;3.42;;;14.20;99.90;;;;;;5039661;28;20562;-49
2023/04/12 12:40:14;;;;;;;9.93;2.75;;;14.10;99.90;;;;;;5027949;28;20167;-47
2023/04/12 12:42:53;;;;;;;7.75;2.28;;;13.90;99.90;;;;;;5032959;28;20040;-41
2023/04/12 12:45:21;;;;;;;13.32;2.58;;;13.80;99.90;;;;;;5035366;28;20041;-38
2023/04/12 12:47:54;;;;;;;11.20;2.83;;;13.80;99.90;;;;;;5025608;28;20046;-47
2023/04/12 12:50:25;;;;;;;10.45;3.30;;;14.00;99.90;;;;;;5037612;28;20052;-40
2023/04/12 12:52:52;;;;;;;9.57;2.67;;;14.00;99.90;;;;;;5038481;28;20051;-40